Time;durP1;ratioP1;P1;durP2;ratioP2;P2;SDS_P1;SDS_P2;PMS_P1;PMS_P2;Temp;Humidity;BMP_temperature;BMP_pressure;BME280_temperature;BME280_humidity;BME280_pressure;Samples;Min_cycle;Max_cycle;Signal;HPM_P1;HPM_P2
2023/10/15 00:00:18;;;;;;;7.30;1.45;;;6.80;99.90;;;;;;6199945;23;20095;-82
2023/10/15 00:02:46;;;;;;;4.10;1.20;;;6.80;99.90;;;;;;6199079;23;20115;-81
2023/10/15 00:05:25;;;;;;;4.85;1.20;;;6.90;99.90;;;;;;6199205;23;20027;-82
2023/10/15 00:07:51;;;;;;;3.72;1.30;;;7.00;99.90;;;;;;6200048;23;20520;-82
2023/10/15 00:10:23;;;;;;;4.38;1.10;;;7.10;99.90;;;;;;6200655;23;20116;-82
2023/10/15 00:12:50;;;;;;;3.83;1.20;;;7.10;99.90;;;;;;6200544;23;20021;-82
2023/10/15 00:15:23;;;;;;;5.50;1.38;;;7.20;99.90;;;;;;6201341;23;20013;-82
2023/10/15 00:17:51;;;;;;;5.72;1.55;;;7.20;99.90;;;;;;6175767;23;20012;-82
2023/10/15 00:20:20;;;;;;;4.60;1.35;;;7.30;99.90;;;;;;6200719;23;20218;-82
2023/10/15 00:22:51;;;;;;;6.28;1.42;;;7.20;99.90;;;;;;6202091;23;20016;-81
2023/10/15 00:25:20;;;;;;;5.88;1.30;;;7.20;99.90;;;;;;6198498;23;20345;-81
2023/10/15 00:27:57;;;;;;;6.60;1.60;;;7.20;99.90;;;;;;6201111;23;20016;-82
2023/10/15 00:30:34;;;;;;;8.60;1.73;;;7.10;99.90;;;;;;6202334;23;20016;-82
2023/10/15 00:33:03;;;;;;;5.97;1.20;;;7.10;99.90;;;;;;6201396;23;20240;-82
2023/10/15 00:35:33;;;;;;;6.30;1.15;;;7.10;99.90;;;;;;6202403;23;20008;-82
2023/10/15 00:38:07;;;;;;;6.72;1.58;;;7.10;99.90;;;;;;6201038;23;20532;-82
2023/10/15 00:40:37;;;;;;;6.07;1.33;;;7.10;99.90;;;;;;6201662;23;20015;-81
2023/10/15 00:43:04;;;;;;;4.07;1.13;;;7.10;99.90;;;;;;6200516;23;20052;-81
2023/10/15 00:45:35;;;;;;;4.55;1.10;;;7.10;99.90;;;;;;6201276;23;20317;-82
2023/10/15 00:48:07;;;;;;;6.63;1.55;;;7.00;99.90;;;;;;6200842;23;20535;-82
2023/10/15 00:50:44;;;;;;;3.25;0.80;;;7.00;99.90;;;;;;6175698;23;20027;-82
2023/10/15 00:53:23;;;;;;;5.07;1.20;;;7.00;99.90;;;;;;6200553;23;20013;-82
2023/10/15 00:55:54;;;;;;;3.25;1.10;;;7.00;99.90;;;;;;6200940;23;20055;-82
2023/10/15 00:58:45;;;;;;;5.38;1.10;;;7.00;99.90;;;;;;6199639;23;20059;-82
2023/10/15 01:01:20;;;;;;;8.15;1.40;;;7.10;99.90;;;;;;6200531;23;20024;-81
2023/10/15 01:04:00;;;;;;;4.30;1.40;;;7.10;99.90;;;;;;6199905;23;20024;-81
2023/10/15 01:08:58;;;;;;;6.25;1.45;;;7.10;99.90;;;;;;6199332;23;20016;-82
2023/10/15 01:11:28;;;;;;;7.82;1.48;;;7.10;99.90;;;;;;6200782;23;20099;-82
2023/10/15 01:13:54;;;;;;;4.75;1.00;;;6.90;99.90;;;;;;6176399;23;20012;-81
2023/10/15 01:16:20;;;;;;;7.15;1.83;;;7.00;99.90;;;;;;6199787;23;20012;-82
2023/10/15 01:18:58;;;;;;;5.38;1.10;;;6.90;99.90;;;;;;6199938;23;20013;-81
2023/10/15 01:21:29;;;;;;;5.63;1.30;;;6.90;99.90;;;;;;6201963;23;20015;-82
2023/10/15 01:24:04;;;;;;;5.35;1.33;;;6.80;99.90;;;;;;6199659;23;20048;-82
2023/10/15 01:26:39;;;;;;;3.65;1.20;;;6.80;99.90;;;;;;6200725;23;20092;-82
2023/10/15 01:29:06;;;;;;;4.13;1.30;;;6.80;99.90;;;;;;6200604;23;20473;-82
2023/10/15 01:31:40;;;;;;;4.78;1.02;;;6.80;99.90;;;;;;6174747;23;20410;-81
2023/10/15 01:34:09;;;;;;;4.20;1.05;;;6.70;99.90;;;;;;6199652;23;20382;-82
2023/10/15 01:36:38;;;;;;;4.10;0.88;;;6.70;99.90;;;;;;6200683;23;20095;-81
2023/10/15 01:39:10;;;;;;;3.42;1.10;;;6.60;99.90;;;;;;6199989;23;20389;-82
2023/10/15 01:41:39;;;;;;;5.00;1.00;;;6.60;99.90;;;;;;6201095;23;20044;-81
2023/10/15 01:44:06;;;;;;;4.75;1.15;;;6.50;99.90;;;;;;6175295;23;20422;-81
2023/10/15 01:49:16;;;;;;;2.47;1.10;;;6.50;99.90;;;;;;6199187;23;20240;-81
2023/10/15 01:51:43;;;;;;;3.15;1.00;;;6.60;99.90;;;;;;6201373;23;20464;-82
2023/10/15 01:54:10;;;;;;;4.85;1.05;;;6.70;99.90;;;;;;6174640;23;20040;-82
2023/10/15 01:56:37;;;;;;;2.28;0.80;;;6.80;99.90;;;;;;6176077;23;20078;-82
2023/10/15 01:59:08;;;;;;;4.13;1.23;;;6.90;99.90;;;;;;6201015;23;20016;-82
2023/10/15 02:01:37;;;;;;;5.68;1.25;;;7.00;99.90;;;;;;6200734;23;20043;-82
2023/10/15 02:04:04;;;;;;;6.03;1.63;;;6.90;99.90;;;;;;6200457;23;20262;-81
2023/10/15 02:06:43;;;;;;;6.68;1.05;;;6.90;99.90;;;;;;6175457;23;20020;-82
2023/10/15 02:09:13;;;;;;;5.57;1.50;;;6.90;99.90;;;;;;6174559;23;20020;-82
2023/10/15 02:11:47;;;;;;;7.57;1.17;;;6.90;99.90;;;;;;6199776;23;20059;-82
2023/10/15 02:14:23;;;;;;;5.38;1.08;;;6.90;99.90;;;;;;6199865;23;20357;-82
2023/10/15 02:16:50;;;;;;;5.25;1.27;;;6.80;99.90;;;;;;6175016;23;20013;-82
2023/10/15 02:22:15;;;;;;;3.13;1.33;;;6.70;99.90;;;;;;6166227;23;20713;-82
2023/10/15 02:24:46;;;;;;;5.07;1.23;;;6.60;99.90;;;;;;6198155;23;20104;-82
2023/10/15 02:27:23;;;;;;;5.07;1.58;;;6.60;99.90;;;;;;6199768;23;20016;-82
2023/10/15 02:29:52;;;;;;;4.50;1.20;;;6.60;99.90;;;;;;6199685;23;20017;-82
2023/10/15 02:34:54;;;;;;;4.95;1.20;;;6.60;99.90;;;;;;6200696;23;20051;-81
2023/10/15 02:37:27;;;;;;;5.82;1.50;;;6.60;99.90;;;;;;6199616;23;20016;-81
2023/10/15 02:39:57;;;;;;;5.00;1.02;;;6.70;99.90;;;;;;6199505;23;20013;-81
2023/10/15 02:42:34;;;;;;;4.70;1.20;;;6.70;99.90;;;;;;6198754;23;20021;-82
2023/10/15 02:45:01;;;;;;;3.78;1.10;;;6.70;99.90;;;;;;6174814;23;20100;-82
2023/10/15 02:47:31;;;;;;;6.63;1.10;;;6.80;99.90;;;;;;6174736;23;20027;-82
2023/10/15 02:50:02;;;;;;;12.52;1.50;;;6.90;99.90;;;;;;6199745;23;20450;-81
2023/10/15 02:52:35;;;;;;;3.78;1.40;;;6.90;99.90;;;;;;6199767;23;20090;-81
2023/10/15 02:55:09;;;;;;;6.47;1.35;;;7.00;99.90;;;;;;6198313;23;20348;-82
2023/10/15 02:57:39;;;;;;;4.30;1.08;;;7.10;99.90;;;;;;6199242;23;20474;-82
2023/10/15 03:00:14;;;;;;;2.70;1.00;;;7.10;99.90;;;;;;6200263;23;20029;-82
2023/10/15 03:02:44;;;;;;;4.45;0.98;;;7.10;99.90;;;;;;6199151;23;20024;-82
2023/10/15 03:05:15;;;;;;;6.05;1.50;;;7.10;99.90;;;;;;6199314;23;20028;-81
2023/10/15 03:07:44;;;;;;;3.15;1.45;;;7.10;99.90;;;;;;6200227;23;20020;-82
2023/10/15 03:10:21;;;;;;;4.05;1.02;;;7.10;99.90;;;;;;6199037;23;20020;-82
2023/10/15 03:12:48;;;;;;;5.30;1.08;;;7.10;99.90;;;;;;6198587;23;20329;-81
2023/10/15 03:15:15;;;;;;;4.65;1.08;;;7.10;99.90;;;;;;6200163;23;20013;-81
2023/10/15 03:17:44;;;;;;;2.90;0.90;;;7.10;99.90;;;;;;6199686;23;20392;-81
2023/10/15 03:22:46;;;;;;;7.55;1.17;;;7.00;99.90;;;;;;6200113;23;20218;-81
2023/10/15 03:25:15;;;;;;;3.58;1.10;;;6.90;99.90;;;;;;6174013;23;20016;-81
2023/10/15 03:27:46;;;;;;;3.17;0.80;;;6.90;99.90;;;;;;6198985;23;20060;-81
2023/10/15 03:30:13;;;;;;;3.13;0.75;;;6.90;99.90;;;;;;6199998;23;20044;-82
2023/10/15 03:32:44;;;;;;;4.72;0.85;;;6.90;99.90;;;;;;6199303;23;20013;-81
2023/10/15 03:35:17;;;;;;;3.97;1.38;;;6.90;99.90;;;;;;6198967;23;20012;-81
2023/10/15 03:37:46;;;;;;;3.05;0.70;;;6.90;99.90;;;;;;6199328;23;20055;-81
2023/10/15 03:41:10;;;;;;;3.10;0.73;;;7.00;99.90;;;;;;6198636;23;20338;-81
2023/10/15 03:43:20;;;;;;;2.17;0.50;;;7.10;99.90;;;;;;6212620;23;20107;-81
2023/10/15 03:45:52;;;;;;;2.72;0.63;;;7.10;99.90;;;;;;6175032;23;20422;-81
2023/10/15 03:48:21;;;;;;;1.15;0.50;;;7.10;99.90;;;;;;6175789;23;20039;-81
2023/10/15 03:50:53;;;;;;;4.45;0.50;;;7.10;99.90;;;;;;6199599;23;20373;-81
2023/10/15 03:53:21;;;;;;;1.63;0.55;;;7.30;99.90;;;;;;6199050;23;20497;-81
2023/10/15 03:55:51;;;;;;;3.22;0.80;;;7.40;99.90;;;;;;6199685;23;20315;-81
2023/10/15 03:58:18;;;;;;;2.53;0.82;;;7.40;99.90;;;;;;6174472;23;20013;-82
2023/10/15 04:00:47;;;;;;;2.10;0.70;;;7.20;99.90;;;;;;6199663;23;20436;-82
2023/10/15 04:03:22;;;;;;;1.95;0.50;;;7.20;99.90;;;;;;6199433;23;20016;-81
2023/10/15 04:05:53;;;;;;;0.80;0.55;;;7.20;99.90;;;;;;6199139;23;20031;-81
2023/10/15 04:08:19;;;;;;;1.42;0.50;;;7.10;99.90;;;;;;6198179;23;20381;-81
2023/10/15 04:10:55;;;;;;;2.00;0.60;;;7.00;99.90;;;;;;6199487;23;20052;-82
2023/10/15 04:13:21;;;;;;;0.75;0.30;;;7.00;99.90;;;;;;6198276;23;20095;-81
2023/10/15 04:15:48;;;;;;;1.73;0.40;;;7.10;99.90;;;;;;6199167;23;20056;-82
2023/10/15 04:18:13;;;;;;;1.60;0.70;;;7.10;99.90;;;;;;6174626;23;20062;-81
2023/10/15 04:20:42;;;;;;;3.05;0.50;;;7.00;99.90;;;;;;6199244;23;20381;-81
2023/10/15 04:23:21;;;;;;;3.17;0.55;;;7.00;99.90;;;;;;6199621;23;20047;-81
2023/10/15 04:25:47;;;;;;;2.22;0.95;;;7.00;99.90;;;;;;6199319;23;20442;-81
2023/10/15 04:28:14;;;;;;;1.75;0.50;;;7.00;99.90;;;;;;6198547;23;20099;-81
2023/10/15 04:30:40;;;;;;;1.05;0.40;;;7.00;99.90;;;;;;6199268;23;20070;-82
2023/10/15 04:33:11;;;;;;;1.05;0.57;;;6.90;99.90;;;;;;6198440;23;20020;-82
2023/10/15 04:35:37;;;;;;;2.15;0.63;;;6.90;99.90;;;;;;6198872;23;20009;-82
2023/10/15 04:38:10;;;;;;;0.70;0.30;;;6.80;99.90;;;;;;6173785;23;20386;-82
2023/10/15 04:43:26;;;;;;;4.60;0.65;;;6.80;99.90;;;;;;6198623;23;20403;-82
2023/10/15 04:45:54;;;;;;;2.40;0.40;;;6.80;99.90;;;;;;6198259;23;20422;-81
2023/10/15 04:48:27;;;;;;;1.35;0.57;;;6.80;99.90;;;;;;6200005;23;20016;-82
2023/10/15 04:50:53;;;;;;;1.73;0.50;;;6.80;99.90;;;;;;6200300;23;20017;-82
2023/10/15 04:55:47;;;;;;;4.50;0.75;;;6.70;99.90;;;;;;6201422;23;20479;-82
2023/10/15 04:58:13;;;;;;;2.30;0.30;;;6.70;99.90;;;;;;6200144;23;20012;-82
2023/10/15 05:00:43;;;;;;;1.65;0.30;;;6.70;99.90;;;;;;6201334;23;20027;-81
2023/10/15 05:03:10;;;;;;;2.22;0.52;;;6.70;99.90;;;;;;6201067;23;20023;-82
2023/10/15 05:05:36;;;;;;;1.98;0.50;;;6.70;99.90;;;;;;6200622;23;20078;-82
2023/10/15 05:08:02;;;;;;;4.25;0.45;;;6.70;99.90;;;;;;6200933;23;20421;-81
2023/10/15 05:10:33;;;;;;;2.05;0.50;;;6.60;99.90;;;;;;6174915;23;20492;-82
2023/10/15 05:12:59;;;;;;;1.67;0.50;;;6.60;99.90;;;;;;6200297;23;20020;-81
2023/10/15 05:15:28;;;;;;;4.40;0.63;;;6.50;99.90;;;;;;6201188;23;20564;-81
2023/10/15 05:17:53;;;;;;;3.03;0.63;;;6.50;99.90;;;;;;6200438;23;20048;-81
2023/10/15 05:20:20;;;;;;;1.65;0.43;;;6.50;99.90;;;;;;6200320;23;20493;-82
2023/10/15 05:22:49;;;;;;;3.88;0.52;;;6.50;99.90;;;;;;6199890;23;20353;-81
2023/10/15 05:25:17;;;;;;;2.10;0.50;;;6.50;99.90;;;;;;6199084;23;20016;-81
2023/10/15 05:27:44;;;;;;;4.63;0.88;;;6.50;99.90;;;;;;6199193;23;20016;-81
2023/10/15 05:30:13;;;;;;;4.00;0.70;;;6.50;99.90;;;;;;6200272;23;20075;-81
2023/10/15 05:32:39;;;;;;;3.10;0.55;;;6.40;99.90;;;;;;6200090;23;20023;-81
2023/10/15 05:35:08;;;;;;;2.72;0.70;;;6.40;99.90;;;;;;6175877;23;20099;-81
2023/10/15 05:37:37;;;;;;;2.75;0.50;;;6.40;99.90;;;;;;6200687;23;20084;-81
2023/10/15 05:40:04;;;;;;;1.13;0.55;;;6.40;99.90;;;;;;6199181;23;20012;-81
2023/10/15 05:42:30;;;;;;;4.93;0.75;;;6.30;99.90;;;;;;6199471;23;20100;-81
2023/10/15 05:44:56;;;;;;;3.13;0.70;;;6.30;99.90;;;;;;6176143;23;20233;-82
2023/10/15 05:47:22;;;;;;;0.55;0.50;;;6.30;99.90;;;;;;6199897;23;20322;-81
2023/10/15 05:49:48;;;;;;;4.78;0.70;;;6.30;99.90;;;;;;6200195;23;20020;-82
2023/10/15 05:52:14;;;;;;;2.50;0.57;;;6.40;99.90;;;;;;6175804;23;20020;-82
2023/10/15 05:54:40;;;;;;;4.80;0.70;;;6.40;99.90;;;;;;6198695;23;20378;-82
2023/10/15 05:57:06;;;;;;;3.10;0.85;;;6.40;99.90;;;;;;6200100;23;20131;-81
2023/10/15 05:59:35;;;;;;;3.45;0.63;;;6.50;99.90;;;;;;6198992;23;20170;-82
2023/10/15 06:02:00;;;;;;;2.67;0.80;;;6.50;99.90;;;;;;6200547;23;20091;-81
2023/10/15 06:04:26;;;;;;;3.72;0.80;;;6.50;99.90;;;;;;6199667;23;20458;-82
2023/10/15 06:06:52;;;;;;;4.53;0.65;;;6.60;99.90;;;;;;6200051;23;20358;-82
2023/10/15 06:09:17;;;;;;;5.35;1.00;;;6.60;99.90;;;;;;6198604;23;20028;-82
2023/10/15 06:11:43;;;;;;;2.78;0.70;;;6.70;99.90;;;;;;6199678;23;20051;-81
2023/10/15 06:14:09;;;;;;;2.03;0.65;;;6.70;99.90;;;;;;6199427;23;20008;-82
2023/10/15 06:16:36;;;;;;;2.53;0.70;;;6.70;99.90;;;;;;6199373;23;20013;-82
2023/10/15 06:19:02;;;;;;;2.72;0.70;;;6.70;99.90;;;;;;6199932;23;20016;-82
2023/10/15 06:21:28;;;;;;;2.63;0.70;;;6.80;99.90;;;;;;6200403;23;20326;-81
2023/10/15 06:23:53;;;;;;;6.50;1.20;;;6.80;99.90;;;;;;6199304;23;20016;-81
2023/10/15 06:26:19;;;;;;;3.25;0.65;;;6.80;99.90;;;;;;6199325;23;20473;-81
2023/10/15 06:28:45;;;;;;;4.47;1.00;;;6.80;99.90;;;;;;6199307;23;20016;-81
2023/10/15 06:31:10;;;;;;;4.13;0.88;;;6.80;99.90;;;;;;6200124;23;20238;-81
2023/10/15 06:33:40;;;;;;;4.20;0.73;;;6.90;99.90;;;;;;6175352;23;20342;-82
2023/10/15 06:36:09;;;;;;;2.70;0.90;;;6.80;99.90;;;;;;6174612;23;20103;-81
2023/10/15 06:38:34;;;;;;;5.95;1.05;;;6.90;99.90;;;;;;6174095;23;20115;-82
2023/10/15 06:41:00;;;;;;;2.88;0.50;;;6.90;99.90;;;;;;6199436;23;20059;-81
2023/10/15 06:43:26;;;;;;;1.60;0.68;;;6.90;99.90;;;;;;6173893;23;20020;-82
2023/10/15 06:45:52;;;;;;;3.45;0.55;;;6.90;99.90;;;;;;6198984;23;20040;-82
2023/10/15 06:48:22;;;;;;;9.05;1.30;;;6.90;99.90;;;;;;6173787;23;20016;-81
2023/10/15 06:50:48;;;;;;;2.60;0.50;;;6.80;99.90;;;;;;6199022;23;20059;-81
2023/10/15 06:53:14;;;;;;;3.58;1.02;;;6.80;99.90;;;;;;6198637;23;20032;-81
2023/10/15 06:55:42;;;;;;;3.05;0.65;;;6.90;99.90;;;;;;6199432;23;20305;-81
2023/10/15 06:58:10;;;;;;;4.70;0.80;;;6.90;99.90;;;;;;6198083;23;20013;-82
2023/10/15 07:00:36;;;;;;;3.13;1.33;;;7.00;99.90;;;;;;6199777;23;20012;-82
2023/10/15 07:03:02;;;;;;;4.95;0.57;;;6.90;99.90;;;;;;6199437;23;20024;-82
2023/10/15 07:05:28;;;;;;;1.23;0.60;;;7.00;99.90;;;;;;6174039;23;20521;-81
2023/10/15 07:07:58;;;;;;;3.95;0.50;;;7.00;99.90;;;;;;6199376;23;20032;-81
2023/10/15 07:10:24;;;;;;;6.32;0.40;;;7.10;99.90;;;;;;6198054;23;20020;-82
2023/10/15 07:12:52;;;;;;;5.22;0.88;;;7.20;99.90;;;;;;6198135;23;20086;-82
2023/10/15 07:15:20;;;;;;;2.50;0.45;;;7.30;99.90;;;;;;6199754;23;20527;-81
2023/10/15 07:17:46;;;;;;;2.00;0.75;;;7.30;99.90;;;;;;6198308;23;20483;-84
2023/10/15 07:20:21;;;;;;;2.65;0.30;;;7.30;99.90;;;;;;6199978;23;20052;-83
2023/10/15 07:22:51;;;;;;;1.58;0.40;;;7.20;99.90;;;;;;6200876;23;20020;-83
2023/10/15 07:25:20;;;;;;;3.97;0.43;;;7.10;99.90;;;;;;6198649;23;20020;-82
2023/10/15 07:27:48;;;;;;;1.08;0.22;;;7.30;99.90;;;;;;6199063;23;20016;-82
2023/10/15 07:30:16;;;;;;;0.20;0.20;;;7.90;99.90;;;;;;6199281;23;20075;-82
2023/10/15 07:32:43;;;;;;;0.85;0.35;;;8.00;99.90;;;;;;6172996;23;20012;-83
2023/10/15 07:35:12;;;;;;;0.40;0.30;;;8.20;99.90;;;;;;6198848;23;20070;-83
2023/10/15 07:37:46;;;;;;;1.13;0.35;;;8.30;99.90;;;;;;6199272;23;20299;-82
2023/10/15 07:40:19;;;;;;;1.23;0.20;;;8.40;99.90;;;;;;6198296;23;20013;-82
2023/10/15 07:42:49;;;;;;;0.22;0.10;;;8.40;99.90;;;;;;6198619;23;20405;-82
2023/10/15 07:45:16;;;;;;;1.10;0.68;;;8.40;99.90;;;;;;6199250;23;20062;-81
2023/10/15 07:47:42;;;;;;;2.15;0.40;;;8.50;99.90;;;;;;6199066;23;20048;-82
2023/10/15 07:50:10;;;;;;;4.22;0.40;;;8.70;99.90;;;;;;6173419;23;20422;-82
2023/10/15 07:52:37;;;;;;;2.45;0.43;;;8.70;99.90;;;;;;6199409;23;20016;-82
2023/10/15 07:55:05;;;;;;;1.85;0.52;;;8.90;99.90;;;;;;6197428;23;20063;-82
2023/10/15 07:57:31;;;;;;;1.50;0.32;;;8.90;99.90;;;;;;6197950;23;20013;-82
2023/10/15 07:59:58;;;;;;;1.23;0.43;;;9.00;99.90;;;;;;6174019;23;20096;-82
2023/10/15 08:02:28;;;;;;;1.40;0.35;;;9.20;99.90;;;;;;6198658;23;20021;-82
2023/10/15 08:04:56;;;;;;;0.35;0.30;;;9.20;99.90;;;;;;6198929;23;20017;-82
2023/10/15 08:07:23;;;;;;;2.55;0.43;;;9.20;99.90;;;;;;6198760;23;20108;-82
2023/10/15 08:09:52;;;;;;;1.48;0.32;;;9.40;99.90;;;;;;6196824;23;20028;-82
2023/10/15 08:12:18;;;;;;;2.97;0.43;;;9.50;99.90;;;;;;6199232;23;20055;-83
2023/10/15 08:14:46;;;;;;;1.20;0.50;;;9.90;99.90;;;;;;6198801;23;20129;-82
2023/10/15 08:17:15;;;;;;;2.08;0.60;;;10.20;99.90;;;;;;6198370;23;20012;-83
2023/10/15 08:19:40;;;;;;;1.55;0.60;;;10.10;99.90;;;;;;6199075;23;20330;-82
2023/10/15 08:22:06;;;;;;;0.60;0.30;;;10.00;99.90;;;;;;6174549;23;20023;-82
2023/10/15 08:24:32;;;;;;;4.70;0.75;;;10.20;99.90;;;;;;6197729;23;20099;-82
2023/10/15 08:26:58;;;;;;;1.15;0.63;;;10.10;99.90;;;;;;6198161;23;20037;-82
2023/10/15 08:29:23;;;;;;;3.80;0.50;;;10.40;99.90;;;;;;6173378;23;20020;-82
2023/10/15 08:31:50;;;;;;;2.50;0.60;;;10.50;99.90;;;;;;6174513;23;20017;-82
2023/10/15 08:34:16;;;;;;;1.35;0.85;;;10.50;99.90;;;;;;6199278;23;20394;-82
2023/10/15 08:36:42;;;;;;;1.95;0.40;;;10.60;99.90;;;;;;6200845;23;20027;-82
2023/10/15 08:39:08;;;;;;;0.40;0.20;;;10.60;99.90;;;;;;6199577;23;20016;-82
2023/10/15 08:41:38;;;;;;;1.10;0.20;;;10.80;99.90;;;;;;6200322;23;20019;-81
2023/10/15 08:44:07;;;;;;;0.17;0.17;;;10.50;99.90;;;;;;6200337;23;20012;-82
2023/10/15 08:46:35;;;;;;;2.70;0.70;;;10.40;99.90;;;;;;6200435;23;20016;-81
2023/10/15 08:49:05;;;;;;;1.70;0.30;;;10.40;99.90;;;;;;6200192;23;20303;-82
2023/10/15 08:51:34;;;;;;;2.08;0.47;;;10.20;99.90;;;;;;6201322;23;20318;-81
2023/10/15 08:54:02;;;;;;;0.88;0.25;;;10.10;99.90;;;;;;6199485;23;20021;-82
2023/10/15 08:56:30;;;;;;;1.08;0.50;;;10.00;99.90;;;;;;6201156;23;20099;-82
2023/10/15 08:58:57;;;;;;;2.75;0.52;;;10.20;99.90;;;;;;6200572;23;20027;-82
2023/10/15 09:01:23;;;;;;;5.05;0.50;;;10.10;99.90;;;;;;6200884;23;20044;-82
2023/10/15 09:03:52;;;;;;;3.47;0.52;;;10.20;99.90;;;;;;6201395;23;20105;-82
2023/10/15 09:06:19;;;;;;;6.53;1.00;;;10.20;99.90;;;;;;6206279;23;20521;-82
2023/10/15 09:08:51;;;;;;;4.25;0.63;;;10.00;99.90;;;;;;6204145;23;20107;-82
2023/10/15 09:11:17;;;;;;;3.65;0.88;;;10.20;99.90;;;;;;6182116;23;20058;-82
2023/10/15 09:13:49;;;;;;;4.15;0.40;;;9.90;99.90;;;;;;6205788;23;20074;-82
2023/10/15 09:16:15;;;;;;;7.43;1.00;;;9.80;99.90;;;;;;6187173;23;20008;-82
2023/10/15 09:18:43;;;;;;;5.13;0.93;;;10.00;99.90;;;;;;6187136;23;20005;-83
2023/10/15 09:21:09;;;;;;;6.00;1.20;;;10.10;99.90;;;;;;6187988;23;20197;-82
2023/10/15 09:23:37;;;;;;;3.92;0.80;;;10.00;99.90;;;;;;6212623;23;20119;-83
2023/10/15 09:26:07;;;;;;;6.82;1.10;;;9.90;99.90;;;;;;6213049;23;20020;-82
2023/10/15 09:28:36;;;;;;;3.50;0.80;;;9.60;99.90;;;;;;6212433;23;20051;-82
2023/10/15 09:31:06;;;;;;;2.40;0.55;;;9.80;99.90;;;;;;6213178;23;20290;-82
2023/10/15 09:33:34;;;;;;;5.85;1.23;;;10.00;99.90;;;;;;6212643;23;20087;-82
2023/10/15 09:36:02;;;;;;;2.00;0.73;;;9.90;99.90;;;;;;6188147;23;20023;-82
2023/10/15 09:38:31;;;;;;;5.70;1.02;;;10.00;99.90;;;;;;6212245;23;20027;-82
2023/10/15 09:40:58;;;;;;;6.13;0.98;;;9.90;99.90;;;;;;6213160;23;20158;-82
2023/10/15 09:43:31;;;;;;;4.65;0.80;;;9.70;99.90;;;;;;6213046;23;20024;-83
2023/10/15 09:45:58;;;;;;;3.42;1.42;;;9.70;99.90;;;;;;6214046;23;20503;-82
2023/10/15 09:48:25;;;;;;;6.95;0.88;;;9.70;99.90;;;;;;6212556;23;20016;-82
2023/10/15 09:50:56;;;;;;;4.88;0.77;;;9.70;99.90;;;;;;6213569;23;20453;-82
2023/10/15 09:53:23;;;;;;;3.53;0.50;;;9.50;99.90;;;;;;6186502;23;20012;-82
2023/10/15 09:55:50;;;;;;;4.53;0.80;;;9.70;99.90;;;;;;6188173;23;20012;-82
2023/10/15 09:58:17;;;;;;;2.55;0.88;;;9.70;99.90;;;;;;6211957;23;20450;-82
2023/10/15 10:03:47;;;;;;;4.93;0.60;;;10.00;99.90;;;;;;6213257;23;20022;-82
2023/10/15 10:06:25;;;;;;;1.75;0.52;;;10.20;99.90;;;;;;6186135;23;20024;-82
2023/10/15 10:09:22;;;;;;;2.17;0.20;;;10.30;99.90;;;;;;6237030;23;20055;-81
2023/10/15 10:11:51;;;;;;;3.55;0.55;;;10.50;99.90;;;;;;6187109;23;20016;-81
2023/10/15 10:14:43;;;;;;;1.67;0.40;;;10.50;99.90;;;;;;6212004;23;20066;-82
2023/10/15 10:17:11;;;;;;;3.75;0.70;;;10.50;99.90;;;;;;6211240;23;20012;-81
2023/10/15 10:19:39;;;;;;;3.58;0.50;;;10.70;99.90;;;;;;6212645;23;20486;-81
2023/10/15 10:22:22;;;;;;;6.22;0.82;;;10.90;99.90;;;;;;6212438;23;20012;-81
2023/10/15 10:24:48;;;;;;;1.98;0.63;;;10.90;99.90;;;;;;6211498;23;20016;-81
2023/10/15 10:27:18;;;;;;;1.85;0.38;;;10.60;99.90;;;;;;6186836;23;20089;-81
2023/10/15 10:29:49;;;;;;;0.63;0.20;;;10.20;99.90;;;;;;6186976;23;20020;-81
2023/10/15 10:32:17;;;;;;;2.10;0.63;;;10.30;99.90;;;;;;6212112;23;20020;-81
2023/10/15 10:34:45;;;;;;;3.08;0.90;;;10.40;99.90;;;;;;6212406;23;20114;-81
2023/10/15 10:37:24;;;;;;;2.95;0.45;;;10.40;99.90;;;;;;6187739;23;20016;-81
2023/10/15 10:39:50;;;;;;;2.92;0.80;;;10.60;99.90;;;;;;6186128;23;20406;-81
2023/10/15 10:42:23;;;;;;;3.45;0.50;;;10.70;99.90;;;;;;6208124;23;20090;-81
2023/10/15 10:44:49;;;;;;;4.53;0.60;;;10.70;99.90;;;;;;6205805;23;20604;-81
2023/10/15 10:47:21;;;;;;;3.72;0.68;;;10.70;99.90;;;;;;6181771;23;20020;-81
2023/10/15 10:49:56;;;;;;;3.22;0.60;;;10.90;99.90;;;;;;6206605;23;20043;-81
2023/10/15 10:52:36;;;;;;;1.23;0.32;;;11.20;99.90;;;;;;6207408;23;20059;-81
2023/10/15 10:55:31;;;;;;;1.45;0.68;;;11.10;99.90;;;;;;6205512;23;20008;-81
2023/10/15 10:57:56;;;;;;;1.23;0.40;;;11.40;99.90;;;;;;6181393;23;20023;-81
2023/10/15 11:00:22;;;;;;;4.50;0.52;;;11.60;99.90;;;;;;6207065;23;20016;-81
2023/10/15 11:02:48;;;;;;;3.78;0.75;;;11.60;99.90;;;;;;6182469;23;20157;-81
2023/10/15 11:05:17;;;;;;;1.90;0.35;;;11.80;99.90;;;;;;6206228;23;20016;-81
2023/10/15 11:07:49;;;;;;;3.13;0.75;;;11.60;99.90;;;;;;6181889;23;20047;-81
2023/10/15 11:10:16;;;;;;;3.00;0.65;;;11.80;99.90;;;;;;6180210;23;20008;-81
2023/10/15 11:12:45;;;;;;;2.88;0.60;;;11.30;99.90;;;;;;6206363;23;20020;-81
2023/10/15 11:15:14;;;;;;;2.58;0.95;;;10.20;99.90;;;;;;6207622;23;20012;-82
2023/10/15 11:18:04;;;;;;;4.57;0.85;;;9.90;99.90;;;;;;6206569;23;20016;-81
2023/10/15 11:20:33;;;;;;;2.13;0.50;;;9.80;99.90;;;;;;6182299;23;20116;-82
2023/10/15 11:23:03;;;;;;;1.50;0.47;;;9.80;99.90;;;;;;6207134;23;20020;-82
2023/10/15 11:25:29;;;;;;;2.63;0.60;;;10.40;99.90;;;;;;6205896;23;20023;-81
2023/10/15 11:27:54;;;;;;;2.25;0.80;;;10.70;99.90;;;;;;6206009;23;20294;-81
2023/10/15 11:30:21;;;;;;;3.15;0.50;;;11.00;99.90;;;;;;6182239;23;20022;-82
2023/10/15 11:32:51;;;;;;;3.47;1.02;;;10.90;99.90;;;;;;6207118;23;20252;-81
2023/10/15 11:35:17;;;;;;;2.72;0.50;;;11.10;99.90;;;;;;6206175;23;20328;-82
2023/10/15 11:37:44;;;;;;;5.70;0.73;;;11.30;99.90;;;;;;6207124;23;20008;-82
2023/10/15 11:40:12;;;;;;;3.83;0.45;;;11.40;99.90;;;;;;6180329;23;20011;-81
2023/10/15 11:42:54;;;;;;;4.53;0.70;;;11.60;99.90;;;;;;6181101;23;20331;-81
2023/10/15 11:45:31;;;;;;;3.38;0.70;;;11.80;99.90;;;;;;6206859;23;20718;-81
2023/10/15 11:47:58;;;;;;;1.77;0.73;;;12.20;99.90;;;;;;6181658;23;20482;-82
2023/10/15 11:50:24;;;;;;;2.63;0.80;;;12.20;99.90;;;;;;6206243;23;20059;-82
2023/10/15 11:52:52;;;;;;;2.45;0.70;;;12.40;99.90;;;;;;6206452;23;20012;-82
2023/10/15 11:55:26;;;;;;;3.28;0.50;;;11.60;99.90;;;;;;6205091;23;20448;-83
2023/10/15 11:57:52;;;;;;;1.35;0.63;;;10.30;99.90;;;;;;6181174;23;20028;-82
2023/10/15 12:00:34;;;;;;;2.63;0.63;;;9.50;99.90;;;;;;6206398;23;20078;-82
2023/10/15 12:03:05;;;;;;;2.10;0.57;;;9.50;99.90;;;;;;6206673;23;20397;-82
2023/10/15 12:05:37;;;;;;;0.68;0.40;;;9.80;99.90;;;;;;6183225;23;20074;-81
2023/10/15 12:08:04;;;;;;;3.28;0.60;;;9.90;99.90;;;;;;6208875;23;20119;-82
2023/10/15 12:10:30;;;;;;;1.23;0.50;;;9.90;99.90;;;;;;6207983;23;20020;-81
2023/10/15 12:12:56;;;;;;;2.03;0.45;;;9.80;99.90;;;;;;6207881;23;20047;-81
2023/10/15 12:15:22;;;;;;;3.63;0.82;;;9.70;99.90;;;;;;6208210;23;20490;-81
2023/10/15 12:17:48;;;;;;;4.53;0.93;;;10.20;99.90;;;;;;6182715;23;20147;-81
2023/10/15 12:20:17;;;;;;;4.15;0.63;;;10.30;99.90;;;;;;6183928;23;20012;-81
2023/10/15 12:22:43;;;;;;;4.43;1.02;;;10.20;99.90;;;;;;6208483;23;20039;-81
2023/10/15 12:25:09;;;;;;;3.47;0.90;;;10.20;99.90;;;;;;6207320;23;20016;-81
2023/10/15 12:27:36;;;;;;;1.63;0.77;;;10.10;99.90;;;;;;6208181;23;20012;-81
2023/10/15 12:30:06;;;;;;;5.57;1.02;;;9.90;99.90;;;;;;6183443;23;20316;-82
2023/10/15 12:32:31;;;;;;;6.90;0.80;;;9.90;99.90;;;;;;6206903;23;20028;-81
2023/10/15 12:34:58;;;;;;;1.83;0.40;;;10.20;99.90;;;;;;6208248;23;20208;-82
2023/10/15 12:37:24;;;;;;;3.80;0.75;;;10.50;99.90;;;;;;6208699;23;20012;-81
2023/10/15 12:39:51;;;;;;;4.90;1.00;;;11.00;99.90;;;;;;6182020;23;20012;-81
2023/10/15 12:42:21;;;;;;;5.82;0.85;;;11.20;99.90;;;;;;6209062;23;20059;-81
2023/10/15 12:44:47;;;;;;;4.03;0.63;;;10.80;99.90;;;;;;6208311;23;20026;-81
2023/10/15 12:47:13;;;;;;;3.58;0.77;;;10.70;99.90;;;;;;6207271;23;20015;-81
2023/10/15 12:49:39;;;;;;;3.92;0.75;;;10.50;99.90;;;;;;6182868;23;20351;-82
2023/10/15 12:52:08;;;;;;;7.40;1.23;;;10.70;99.90;;;;;;6183528;23;20016;-81
2023/10/15 12:54:34;;;;;;;4.38;0.90;;;11.30;99.90;;;;;;6207396;23;20016;-81
2023/10/15 12:57:00;;;;;;;2.03;0.45;;;11.60;99.90;;;;;;6207872;23;20012;-81
2023/10/15 12:59:25;;;;;;;2.88;0.73;;;11.90;99.90;;;;;;6182998;23;20465;-81
2023/10/15 13:01:51;;;;;;;4.13;0.68;;;12.10;99.90;;;;;;6182697;23;20043;-81
2023/10/15 13:04:17;;;;;;;1.95;0.60;;;11.80;99.90;;;;;;6207581;23;20014;-81
2023/10/15 13:06:43;;;;;;;0.88;0.30;;;12.10;99.90;;;;;;6182876;23;20016;-81
2023/10/15 13:09:09;;;;;;;2.38;0.50;;;11.80;99.90;;;;;;6206862;23;20232;-82
2023/10/15 13:11:35;;;;;;;4.38;0.55;;;11.50;99.90;;;;;;6208466;23;20015;-81
2023/10/15 13:14:01;;;;;;;3.10;0.65;;;11.20;99.90;;;;;;6207135;23;20207;-82
2023/10/15 13:16:27;;;;;;;3.40;0.68;;;10.90;99.90;;;;;;6182433;23;20393;-81
2023/10/15 13:18:52;;;;;;;3.50;0.80;;;10.50;99.90;;;;;;6208304;23;20016;-83
2023/10/15 13:21:18;;;;;;;3.60;0.70;;;10.10;99.90;;;;;;6183569;23;20035;-83
2023/10/15 13:23:44;;;;;;;3.85;1.33;;;9.80;99.90;;;;;;6182027;23;20476;-82